Time;durP1;ratioP1;P1;durP2;ratioP2;P2;SDS_P1;SDS_P2;PMS_P1;PMS_P2;Temp;Humidity;BMP_temperature;BMP_pressure;BME280_temperature;BME280_humidity;BME280_pressure;Samples;Min_cycle;Max_cycle;Signal;HPM_P1;HPM_P2
2022/05/20 00:01:53;;;;;;;9.38;2.60;;;;;;;;;;5054263;28;20031;-81
2022/05/20 00:04:19;;;;;;;9.07;2.35;;;;;;;;;;5053218;28;20508;-82
2022/05/20 00:06:46;;;;;;;15.32;2.70;;;;;;;;;;5052497;28;20021;-82
2022/05/20 00:09:12;;;;;;;10.57;2.50;;;;;;;;;;5050443;28;20054;-83
2022/05/20 00:11:38;;;;;;;7.45;1.90;;;;;;;;;;5052594;28;20025;-82
2022/05/20 00:14:05;;;;;;;11.93;2.35;;;;;;;;;;5052539;28;20035;-82
2022/05/20 00:16:34;;;;;;;11.82;2.45;;;;;;;;;;5053528;28;20033;-82
2022/05/20 00:19:02;;;;;;;11.65;2.70;;;;;;;;;;5051850;28;20064;-80
2022/05/20 00:21:29;;;;;;;11.23;2.90;;;;;;;;;;5051622;28;20436;-81
2022/05/20 00:23:55;;;;;;;10.45;3.15;;;;;;;;;;5051667;28;20030;-82
2022/05/20 00:26:22;;;;;;;10.07;2.90;;;;;;;;;;5035725;28;20029;-82
2022/05/20 00:28:48;;;;;;;10.77;2.60;;;;;;;;;;5054062;28;20025;-82
2022/05/20 00:31:16;;;;;;;9.23;2.90;;;;;;;;;;5051687;28;20029;-82
2022/05/20 00:33:42;;;;;;;19.73;2.40;;;;;;;;;;5052080;28;20515;-83
2022/05/20 00:36:09;;;;;;;17.10;3.00;;;;;;;;;;5051389;28;20025;-82
2022/05/20 00:38:35;;;;;;;10.50;2.60;;;;;;;;;;5050341;28;20029;-83
2022/05/20 00:41:02;;;;;;;6.90;2.63;;;;;;;;;;5051201;28;20031;-81
2022/05/20 00:43:35;;;;;;;5.40;2.25;;;;;;;;;;5053317;28;20029;-82
2022/05/20 00:46:03;;;;;;;14.75;2.53;;;;;;;;;;5051472;28;20485;-83
2022/05/20 00:48:29;;;;;;;12.00;2.63;;;;;;;;;;5051412;28;20033;-82
2022/05/20 00:50:59;;;;;;;8.45;2.70;;;;;;;;;;5049777;28;20408;-82
2022/05/20 00:53:28;;;;;;;8.73;3.08;;;;;;;;;;5052326;28;20017;-83
2022/05/20 00:55:55;;;;;;;12.90;3.10;;;;;;;;;;5053243;28;20032;-83
2022/05/20 00:58:23;;;;;;;11.15;2.78;;;;;;;;;;5050239;28;20024;-82
2022/05/20 01:00:53;;;;;;;8.60;2.67;;;;;;;;;;5051464;28;20032;-82
2022/05/20 01:03:24;;;;;;;8.48;2.72;;;;;;;;;;5051157;28;20043;-83
2022/05/20 01:05:51;;;;;;;12.30;2.75;;;;;;;;;;5059592;28;20029;-83
2022/05/20 01:08:19;;;;;;;10.55;2.38;;;;;;;;;;5051231;28;20021;-82
2022/05/20 01:10:46;;;;;;;9.05;2.83;;;;;;;;;;5053009;28;20040;-83
2022/05/20 01:13:13;;;;;;;8.38;2.45;;;;;;;;;;5050613;28;20082;-82
2022/05/20 01:15:40;;;;;;;10.88;2.45;;;;;;;;;;5051031;28;20074;-83
2022/05/20 01:18:07;;;;;;;12.98;2.90;;;;;;;;;;5049635;28;20021;-83
2022/05/20 01:20:37;;;;;;;5.90;2.75;;;;;;;;;;5050581;28;20021;-82
2022/05/20 01:23:13;;;;;;;11.63;2.47;;;;;;;;;;5051418;28;20023;-84
2022/05/20 01:25:41;;;;;;;9.48;2.35;;;;;;;;;;5050261;28;20066;-83
2022/05/20 01:28:08;;;;;;;7.78;2.25;;;;;;;;;;5049531;28;20359;-80
2022/05/20 01:30:34;;;;;;;8.13;2.53;;;;;;;;;;5050586;28;20041;-82
2022/05/20 01:33:07;;;;;;;6.93;2.50;;;;;;;;;;5050020;28;20017;-83
2022/05/20 01:35:36;;;;;;;10.35;2.90;;;;;;;;;;5050506;28;20033;-83
2022/05/20 01:38:03;;;;;;;8.70;2.90;;;;;;;;;;5051651;28;20138;-83
2022/05/20 01:40:35;;;;;;;8.43;2.53;;;;;;;;;;5051914;28;20039;-83
2022/05/20 01:43:03;;;;;;;9.82;2.75;;;;;;;;;;5050218;28;20051;-82
2022/05/20 01:45:36;;;;;;;8.75;2.95;;;;;;;;;;5051006;28;20037;-82
2022/05/20 01:48:10;;;;;;;7.28;2.90;;;;;;;;;;5048776;28;20045;-83
2022/05/20 01:50:40;;;;;;;12.38;3.03;;;;;;;;;;5049572;28;20045;-83
2022/05/20 01:53:10;;;;;;;6.30;2.35;;;;;;;;;;5050942;28;20033;-83
2022/05/20 01:55:42;;;;;;;9.20;2.47;;;;;;;;;;5050851;28;20032;-82
2022/05/20 01:58:12;;;;;;;10.25;2.80;;;;;;;;;;5048962;28;20507;-83
2022/05/20 02:00:40;;;;;;;7.78;2.65;;;;;;;;;;5050135;28;20033;-83
2022/05/20 02:03:15;;;;;;;8.30;3.05;;;;;;;;;;5049835;28;20028;-83
2022/05/20 02:05:46;;;;;;;16.00;2.75;;;;;;;;;;5050241;28;20029;-83
2022/05/20 02:08:36;;;;;;;7.90;2.55;;;;;;;;;;5050279;28;20017;-83
2022/05/20 02:11:06;;;;;;;7.72;2.58;;;;;;;;;;5042097;28;20195;-83
2022/05/20 02:13:35;;;;;;;15.07;3.20;;;;;;;;;;5051878;28;20440;-84
2022/05/20 02:16:08;;;;;;;11.02;3.03;;;;;;;;;;5050075;28;20036;-82
2022/05/20 02:18:36;;;;;;;7.28;2.75;;;;;;;;;;5049632;28;20033;-83
2022/05/20 02:21:09;;;;;;;5.25;2.63;;;;;;;;;;5061284;28;20026;-82
2022/05/20 02:23:38;;;;;;;11.38;2.63;;;;;;;;;;5049902;28;20031;-83
2022/05/20 02:26:07;;;;;;;7.68;2.63;;;;;;;;;;5051139;28;20033;-82
2022/05/20 02:28:35;;;;;;;18.38;2.88;;;;;;;;;;5049685;28;20025;-85
2022/05/20 02:31:02;;;;;;;9.13;2.95;;;;;;;;;;5049298;28;20041;-83
2022/05/20 02:33:29;;;;;;;6.53;2.83;;;;;;;;;;5048505;28;20031;-84
2022/05/20 02:36:03;;;;;;;7.70;2.60;;;;;;;;;;5047195;28;20029;-84
2022/05/20 02:38:29;;;;;;;10.13;2.33;;;;;;;;;;5034716;28;20033;-82
2022/05/20 02:40:55;;;;;;;11.43;3.30;;;;;;;;;;5051348;28;20025;-82
2022/05/20 02:43:22;;;;;;;12.82;2.97;;;;;;;;;;5049141;28;20021;-83
2022/05/20 02:45:49;;;;;;;9.15;2.80;;;;;;;;;;5049239;28;20024;-82
2022/05/20 02:48:16;;;;;;;9.23;2.35;;;;;;;;;;5049799;28;20028;-81
2022/05/20 02:50:43;;;;;;;9.57;3.00;;;;;;;;;;5049880;28;20037;-83
2022/05/20 02:53:10;;;;;;;11.07;3.00;;;;;;;;;;5050125;28;20032;-83
2022/05/20 02:55:38;;;;;;;7.97;2.58;;;;;;;;;;5052139;28;20029;-83
2022/05/20 02:58:05;;;;;;;11.18;3.08;;;;;;;;;;5049919;28;20028;-83
2022/05/20 03:06:01;;;;;;;9.43;2.60;;;;;;;;;;5053362;28;20025;-82
2022/05/20 03:08:28;;;;;;;8.93;2.92;;;;;;;;;;5053975;28;20009;-83
2022/05/20 03:10:55;;;;;;;9.63;2.72;;;;;;;;;;5055015;28;20067;-83
2022/05/20 03:13:21;;;;;;;10.38;3.10;;;;;;;;;;5054326;28;20029;-84
2022/05/20 03:15:47;;;;;;;10.88;2.92;;;;;;;;;;5051520;28;20571;-82
2022/05/20 03:18:14;;;;;;;9.23;3.35;;;;;;;;;;5053572;28;20025;-84
2022/05/20 03:20:41;;;;;;;12.85;2.80;;;;;;;;;;5052037;28;20390;-82
2022/05/20 03:23:09;;;;;;;12.23;3.38;;;;;;;;;;5053225;28;20035;-84
2022/05/20 03:25:36;;;;;;;9.40;2.60;;;;;;;;;;5053370;28;20035;-83
2022/05/20 03:28:03;;;;;;;8.73;2.92;;;;;;;;;;5052834;28;20029;-83
2022/05/20 03:30:29;;;;;;;7.63;2.60;;;;;;;;;;5052059;28;20040;-84
2022/05/20 03:32:55;;;;;;;8.13;2.80;;;;;;;;;;5053077;28;20027;-84
2022/05/20 03:35:21;;;;;;;11.07;2.97;;;;;;;;;;5052864;28;20024;-83
2022/05/20 03:37:48;;;;;;;10.35;3.42;;;;;;;;;;5056190;28;20041;-84
2022/05/20 03:40:14;;;;;;;15.65;2.80;;;;;;;;;;5052403;28;20021;-83
2022/05/20 03:42:41;;;;;;;8.80;3.17;;;;;;;;;;5052356;28;20039;-82
2022/05/20 03:45:07;;;;;;;14.23;3.30;;;;;;;;;;5050980;28;20040;-84
2022/05/20 03:47:34;;;;;;;8.43;2.92;;;;;;;;;;5052826;28;20413;-83
2022/05/20 03:50:01;;;;;;;8.18;3.20;;;;;;;;;;5054003;28;20037;-84
2022/05/20 03:52:27;;;;;;;8.00;2.97;;;;;;;;;;5053342;28;20494;-84
2022/05/20 03:54:53;;;;;;;9.15;3.17;;;;;;;;;;5050897;28;20035;-84
2022/05/20 03:57:20;;;;;;;8.73;2.38;;;;;;;;;;5052663;28;20029;-84
2022/05/20 03:59:46;;;;;;;10.48;3.47;;;;;;;;;;5050968;28;20032;-83
2022/05/20 04:02:14;;;;;;;8.50;3.05;;;;;;;;;;5052258;28;20409;-84
2022/05/20 04:04:42;;;;;;;9.32;2.75;;;;;;;;;;5054039;28;20035;-83
2022/05/20 04:07:14;;;;;;;5.53;2.72;;;;;;;;;;5051835;28;20035;-83
2022/05/20 04:09:41;;;;;;;10.32;3.10;;;;;;;;;;5052172;28;20029;-83
2022/05/20 04:12:09;;;;;;;54.03;4.55;;;;;;;;;;5051689;28;20031;-84
2022/05/20 04:14:36;;;;;;;9.95;3.13;;;;;;;;;;5051001;28;20513;-84
2022/05/20 04:17:03;;;;;;;13.27;3.15;;;;;;;;;;5053322;28;20025;-84
2022/05/20 04:19:30;;;;;;;11.15;3.35;;;;;;;;;;5053141;28;20625;-83
2022/05/20 04:22:05;;;;;;;17.33;3.55;;;;;;;;;;5051312;28;20505;-84
2022/05/20 04:24:31;;;;;;;12.00;3.45;;;;;;;;;;5051384;28;20042;-84
2022/05/20 04:26:58;;;;;;;12.15;3.47;;;;;;;;;;5051049;28;20031;-84
2022/05/20 04:29:24;;;;;;;12.02;3.55;;;;;;;;;;5051338;28;20026;-83
2022/05/20 04:31:51;;;;;;;10.73;3.17;;;;;;;;;;5053763;28;20029;-84
2022/05/20 04:34:18;;;;;;;12.00;3.45;;;;;;;;;;5050003;28;20027;-82
2022/05/20 04:36:44;;;;;;;6.85;3.28;;;;;;;;;;5051257;28;20029;-83
2022/05/20 04:39:10;;;;;;;10.07;3.17;;;;;;;;;;5051224;28;20025;-83
2022/05/20 04:47:11;;;;;;;12.45;3.20;;;;;;;;;;5049494;28;20053;-83
2022/05/20 04:49:40;;;;;;;11.32;3.47;;;;;;;;;;5051327;28;20355;-83
2022/05/20 04:52:06;;;;;;;12.20;3.33;;;;;;;;;;5051168;28;20017;-82
2022/05/20 04:54:51;;;;;;;8.93;2.92;;;;;;;;;;5051268;28;20031;-84
2022/05/20 04:57:38;;;;;;;13.57;3.70;;;;;;;;;;5050522;28;20036;-82
2022/05/20 05:00:07;;;;;;;11.45;2.97;;;;;;;;;;5050764;28;20500;-83
2022/05/20 05:02:34;;;;;;;9.57;3.33;;;;;;;;;;5050759;28;20033;-84
2022/05/20 05:05:00;;;;;;;11.98;3.42;;;;;;;;;;5052063;28;20026;-82
2022/05/20 05:07:27;;;;;;;12.10;3.80;;;;;;;;;;5051855;28;20025;-82
2022/05/20 05:09:53;;;;;;;9.30;3.05;;;;;;;;;;5050424;28;20027;-83
2022/05/20 05:12:21;;;;;;;12.90;3.45;;;;;;;;;;5047577;28;20025;-82
2022/05/20 05:14:49;;;;;;;10.88;2.95;;;;;;;;;;5050738;28;20013;-83
2022/05/20 05:20:09;;;;;;;10.38;3.50;;;;;;;;;;5049138;28;20029;-83
2022/05/20 05:22:36;;;;;;;13.18;3.20;;;;;;;;;;5050398;28;20021;-83
2022/05/20 05:25:03;;;;;;;8.45;2.90;;;;;;;;;;5049182;28;20405;-84
2022/05/20 05:27:29;;;;;;;9.15;3.75;;;;;;;;;;5050088;28;20023;-82
2022/05/20 05:29:55;;;;;;;12.82;3.50;;;;;;;;;;5050176;28;20096;-83
2022/05/20 05:32:22;;;;;;;11.27;3.53;;;;;;;;;;5050056;28;20417;-84
2022/05/20 05:34:48;;;;;;;10.93;3.08;;;;;;;;;;5052207;28;20017;-82
2022/05/20 05:37:14;;;;;;;7.38;3.22;;;;;;;;;;5049996;28;20025;-81
2022/05/20 05:39:40;;;;;;;27.05;3.40;;;;;;;;;;5049535;28;20452;-82
2022/05/20 05:42:07;;;;;;;13.73;3.83;;;;;;;;;;5050145;28;20023;-82
2022/05/20 05:44:33;;;;;;;12.50;3.55;;;;;;;;;;5050012;28;20497;-81
2022/05/20 05:46:59;;;;;;;15.48;3.42;;;;;;;;;;5051263;28;20059;-82
2022/05/20 05:49:26;;;;;;;10.75;4.35;;;;;;;;;;5050453;28;20033;-82
2022/05/20 05:51:54;;;;;;;7.50;3.70;;;;;;;;;;5048366;28;20021;-82
2022/05/20 05:54:21;;;;;;;16.80;3.58;;;;;;;;;;5049566;28;20439;-81
2022/05/20 05:56:48;;;;;;;12.65;2.95;;;;;;;;;;5065350;28;20041;-81
2022/05/20 05:59:14;;;;;;;8.55;3.53;;;;;;;;;;5049663;28;20413;-82
2022/05/20 06:01:40;;;;;;;8.48;3.08;;;;;;;;;;5052259;28;20021;-83
2022/05/20 06:04:07;;;;;;;13.63;3.20;;;;;;;;;;5049711;28;20025;-83
2022/05/20 06:06:33;;;;;;;10.23;2.88;;;;;;;;;;5049592;28;20029;-82
2022/05/20 06:08:59;;;;;;;12.15;3.40;;;;;;;;;;5049306;28;20087;-82
2022/05/20 06:11:26;;;;;;;27.00;3.53;;;;;;;;;;5047112;28;20037;-70
2022/05/20 06:13:52;;;;;;;8.88;3.03;;;;;;;;;;5050545;28;20490;-68
2022/05/20 06:16:19;;;;;;;16.27;3.80;;;;;;;;;;5049112;28;20095;-68
2022/05/20 06:18:46;;;;;;;14.02;2.90;;;;;;;;;;5050766;28;20025;-68
2022/05/20 06:21:12;;;;;;;16.50;3.67;;;;;;;;;;5049223;28;20028;-68
2022/05/20 06:23:38;;;;;;;11.88;2.92;;;;;;;;;;5049056;28;20095;-68
2022/05/20 06:26:05;;;;;;;13.05;3.70;;;;;;;;;;5050039;28;20017;-68
2022/05/20 06:28:31;;;;;;;10.88;2.40;;;;;;;;;;5034838;28;20495;-68
2022/05/20 06:30:58;;;;;;;8.50;2.58;;;;;;;;;;5045749;28;20071;-68
2022/05/20 06:33:24;;;;;;;8.77;3.30;;;;;;;;;;5047121;28;20032;-67
2022/05/20 06:41:21;;;;;;;12.52;2.75;;;;;;;;;;5052527;28;20033;-68
2022/05/20 06:43:48;;;;;;;10.63;3.30;;;;;;;;;;5053915;28;20029;-68
2022/05/20 06:46:16;;;;;;;10.23;2.97;;;;;;;;;;5051390;28;20089;-68
2022/05/20 06:48:54;;;;;;;10.57;2.88;;;;;;;;;;5052130;28;20039;-68
2022/05/20 06:51:28;;;;;;;7.65;2.55;;;;;;;;;;5051374;28;20052;-67
2022/05/20 06:53:56;;;;;;;10.50;3.30;;;;;;;;;;5052103;28;20542;-69
2022/05/20 06:56:24;;;;;;;8.70;2.90;;;;;;;;;;5050614;28;20025;-68
2022/05/20 06:58:50;;;;;;;12.15;2.72;;;;;;;;;;5049476;28;20028;-68
2022/05/20 07:01:16;;;;;;;7.38;2.97;;;;;;;;;;5048946;28;20083;-68
2022/05/20 07:03:43;;;;;;;15.63;3.45;;;;;;;;;;5050980;28;20540;-68
2022/05/20 07:06:11;;;;;;;7.78;2.70;;;;;;;;;;5051773;28;20489;-69
2022/05/20 07:08:38;;;;;;;11.68;3.25;;;;;;;;;;5050704;28;20025;-69
2022/05/20 07:11:05;;;;;;;11.15;2.90;;;;;;;;;;5051688;28;20033;-68
2022/05/20 07:13:32;;;;;;;8.30;2.80;;;;;;;;;;5053586;28;20035;-68
2022/05/20 07:15:59;;;;;;;11.55;2.65;;;;;;;;;;5050820;28;20037;-68
2022/05/20 07:18:26;;;;;;;6.03;2.63;;;;;;;;;;5047172;28;20025;-68
2022/05/20 07:20:52;;;;;;;13.77;2.80;;;;;;;;;;5049701;28;20036;-69
2022/05/20 07:23:19;;;;;;;10.32;2.50;;;;;;;;;;5059434;28;20028;-69
2022/05/20 07:25:45;;;;;;;9.98;2.83;;;;;;;;;;5052056;28;20025;-69
2022/05/20 07:28:11;;;;;;;8.02;2.38;;;;;;;;;;5051300;28;20021;-69
2022/05/20 07:30:38;;;;;;;9.02;2.85;;;;;;;;;;5050535;28;20592;-69
2022/05/20 07:33:04;;;;;;;8.45;2.72;;;;;;;;;;5051029;28;20428;-69
2022/05/20 07:35:31;;;;;;;9.82;2.30;;;;;;;;;;5051145;28;20039;-69
2022/05/20 07:37:58;;;;;;;15.48;2.90;;;;;;;;;;5052324;28;20035;-69
2022/05/20 07:40:24;;;;;;;11.02;2.70;;;;;;;;;;5050540;28;20039;-69
2022/05/20 07:42:51;;;;;;;5.80;2.13;;;;;;;;;;5051063;28;20031;-69
2022/05/20 07:45:17;;;;;;;8.75;2.63;;;;;;;;;;5051034;28;20036;-69
2022/05/20 07:47:45;;;;;;;11.32;2.58;;;;;;;;;;5049205;28;20037;-69
2022/05/20 07:50:11;;;;;;;11.70;2.88;;;;;;;;;;5049960;28;20025;-69
2022/05/20 07:55:25;;;;;;;8.05;2.30;;;;;;;;;;5049466;28;20398;-68
2022/05/20 07:57:52;;;;;;;14.48;2.78;;;;;;;;;;5050791;28;20397;-71
2022/05/20 08:00:19;;;;;;;10.77;2.30;;;;;;;;;;5050594;28;20062;-71
2022/05/20 08:02:45;;;;;;;11.75;2.80;;;;;;;;;;5050707;28;20078;-72
2022/05/20 08:05:12;;;;;;;6.93;2.00;;;;;;;;;;5050337;28;20041;-68
2022/05/20 08:07:41;;;;;;;7.55;2.60;;;;;;;;;;5052713;28;20448;-69
2022/05/20 08:10:11;;;;;;;9.32;2.65;;;;;;;;;;5050662;28;20039;-69
2022/05/20 08:12:37;;;;;;;7.95;2.35;;;;;;;;;;5050583;28;20039;-71
2022/05/20 08:15:04;;;;;;;10.20;2.60;;;;;;;;;;5050669;28;20384;-69
2022/05/20 08:17:35;;;;;;;7.43;2.40;;;;;;;;;;5050808;28;20028;-69
2022/05/20 08:20:04;;;;;;;7.40;2.30;;;;;;;;;;5050915;28;20091;-69
2022/05/20 08:22:31;;;;;;;8.07;2.08;;;;;;;;;;5051748;28;20035;-69
2022/05/20 08:24:58;;;;;;;8.38;2.47;;;;;;;;;;5050254;28;20029;-69
2022/05/20 08:27:26;;;;;;;7.53;2.58;;;;;;;;;;5048970;28;20035;-67
2022/05/20 08:29:53;;;;;;;15.30;2.17;;;;;;;;;;5050019;28;20025;-68
2022/05/20 08:32:19;;;;;;;5.50;2.58;;;;;;;;;;5050037;28;20031;-68
2022/05/20 08:34:46;;;;;;;10.88;3.05;;;;;;;;;;5051390;28;20021;-67
2022/05/20 08:37:14;;;;;;;8.43;2.80;;;;;;;;;;5049838;28;20035;-68
2022/05/20 08:39:40;;;;;;;11.88;2.40;;;;;;;;;;5049815;28;20523;-67
2022/05/20 08:42:18;;;;;;;8.43;2.67;;;;;;;;;;5050163;28;20043;-68
2022/05/20 08:44:45;;;;;;;8.70;2.10;;;;;;;;;;5050055;28;20031;-67
2022/05/20 08:47:27;;;;;;;8.23;2.83;;;;;;;;;;5049723;28;20063;-68
2022/05/20 08:49:57;;;;;;;8.48;2.55;;;;;;;;;;5047502;28;20041;-67
2022/05/20 08:52:24;;;;;;;8.23;2.42;;;;;;;;;;5048904;28;20031;-68
2022/05/20 08:54:51;;;;;;;13.05;2.55;;;;;;;;;;5049734;28;20033;-71
2022/05/20 08:57:25;;;;;;;7.63;2.35;;;;;;;;;;5049633;28;20031;-71
2022/05/20 08:59:51;;;;;;;6.35;2.30;;;;;;;;;;5049218;28;20027;-69
2022/05/20 09:02:18;;;;;;;5.82;2.33;;;;;;;;;;5049127;28;20068;-69
2022/05/20 09:04:44;;;;;;;8.35;2.58;;;;;;;;;;5051146;28;20401;-69
2022/05/20 09:07:12;;;;;;;8.40;2.47;;;;;;;;;;5047763;28;20570;-69
2022/05/20 09:09:47;;;;;;;9.02;2.58;;;;;;;;;;5049086;28;20029;-69
2022/05/20 09:12:26;;;;;;;9.70;2.05;;;;;;;;;;5048969;28;20442;-69
2022/05/20 09:17:58;;;;;;;8.73;2.22;;;;;;;;;;5037051;28;20025;-69
2022/05/20 09:20:24;;;;;;;9.20;2.15;;;;;;;;;;5033502;28;20037;-69
2022/05/20 09:23:10;;;;;;;9.55;2.78;;;;;;;;;;5051186;28;20025;-69
2022/05/20 09:25:46;;;;;;;10.30;2.40;;;;;;;;;;5049357;28;20074;-69
2022/05/20 09:28:31;;;;;;;14.57;2.28;;;;;;;;;;5048965;28;20021;-69
2022/05/20 09:31:13;;;;;;;7.38;2.38;;;;;;;;;;5048527;28;20041;-70
2022/05/20 09:33:40;;;;;;;12.73;2.30;;;;;;;;;;5048851;28;20021;-69
2022/05/20 09:36:06;;;;;;;7.57;2.03;;;;;;;;;;5049000;28;20393;-67
2022/05/20 09:38:34;;;;;;;11.05;2.75;;;;;;;;;;5064506;28;20035;-66
2022/05/20 09:41:09;;;;;;;9.45;2.30;;;;;;;;;;5049774;28;20025;-67
2022/05/20 09:43:40;;;;;;;8.00;2.28;;;;;;;;;;5047260;28;20756;-67
2022/05/20 09:46:13;;;;;;;7.32;2.42;;;;;;;;;;5046869;28;20037;-67
2022/05/20 09:48:46;;;;;;;4.88;2.35;;;;;;;;;;5045196;28;20033;-69
2022/05/20 09:51:15;;;;;;;7.43;2.60;;;;;;;;;;5046023;28;20037;-66
2022/05/20 09:53:42;;;;;;;8.85;2.47;;;;;;;;;;5046786;28;20035;-67
2022/05/20 09:56:18;;;;;;;10.43;2.53;;;;;;;;;;5047982;28;20028;-67
2022/05/20 09:58:59;;;;;;;11.93;2.70;;;;;;;;;;5049285;28;20024;-66
2022/05/20 10:01:25;;;;;;;;;;;;;;;;;;5050094;28;20031;-67
2022/05/20 10:03:57;;;;;;;11.75;2.47;;;;;;;;;;5047774;28;19917;-66
2022/05/20 10:06:33;;;;;;;14.00;2.60;;;;;;;;;;5047725;28;20054;-67
2022/05/20 10:09:22;;;;;;;11.10;2.53;;;;;;;;;;5048409;28;20032;-67
2022/05/20 10:11:52;;;;;;;11.38;2.53;;;;;;;;;;5026869;28;20049;-66
2022/05/20 10:14:38;;;;;;;11.38;2.58;;;;;;;;;;5011742;28;20026;-66
2022/05/20 10:17:31;;;;;;;11.95;2.80;;;;;;;;;;4985861;28;20048;-67
2022/05/20 10:20:04;;;;;;;9.88;2.65;;;;;;;;;;4930371;29;20047;-66
2022/05/20 10:22:39;;;;;;;17.80;3.25;;;;;;;;;;4930550;29;20040;-66
2022/05/20 10:25:25;;;;;;;11.15;2.40;;;;;;;;;;4930346;29;20042;-66
2022/05/20 10:33:59;;;;;;;6.57;2.30;;;;;;;;;;4929863;29;20090;-66
2022/05/20 10:36:34;;;;;;;11.98;2.63;;;;;;;;;;4930232;29;20524;-66
2022/05/20 10:39:05;;;;;;;9.07;2.75;;;;;;;;;;4929971;29;20030;-66
2022/05/20 10:41:46;;;;;;;11.25;3.20;;;;;;;;;;4930685;29;20048;-66
2022/05/20 10:50:10;;;;;;;9.90;2.33;;;;;;;;;;4930781;29;20046;-70
2022/05/20 10:52:38;;;;;;;8.30;2.20;;;;;;;;;;4928716;29;20523;-66
2022/05/20 10:55:11;;;;;;;14.32;2.83;;;;;;;;;;4958967;28;20435;-66
2022/05/20 10:57:46;;;;;;;12.77;2.38;;;;;;;;;;5033126;28;20032;-66
2022/05/20 11:00:12;;;;;;;9.68;2.42;;;;;;;;;;5047929;28;20021;-66
2022/05/20 11:02:58;;;;;;;10.68;2.45;;;;;;;;;;5046798;28;20071;-67
2022/05/20 11:05:43;;;;;;;8.85;2.28;;;;;;;;;;5032566;28;20026;-68
2022/05/20 11:08:25;;;;;;;7.65;2.35;;;;;;;;;;5046326;28;20033;-65
2022/05/20 11:11:10;;;;;;;11.68;2.53;;;;;;;;;;5045625;28;20536;-66
2022/05/20 11:13:40;;;;;;;10.10;2.17;;;;;;;;;;5047571;28;20032;-65
2022/05/20 11:16:06;;;;;;;10.10;2.60;;;;;;;;;;5047855;28;20028;-65
2022/05/20 11:18:42;;;;;;;16.17;2.80;;;;;;;;;;5047942;28;20025;-66
2022/05/20 11:21:32;;;;;;;8.88;2.63;;;;;;;;;;5042262;28;20026;-64
2022/05/20 11:24:08;;;;;;;8.73;2.10;;;;;;;;;;5041677;28;20033;-66
2022/05/20 11:26:37;;;;;;;9.55;2.47;;;;;;;;;;5050600;28;20359;-69
2022/05/20 11:29:28;;;;;;;11.55;2.50;;;;;;;;;;5049430;28;20017;-67
2022/05/20 11:31:58;;;;;;;6.68;2.20;;;;;;;;;;5048859;28;20458;-67
2022/05/20 11:34:38;;;;;;;9.90;2.15;;;;;;;;;;5048949;28;20033;-65
2022/05/20 11:37:13;;;;;;;13.43;2.55;;;;;;;;;;5050393;28;20033;-66
2022/05/20 11:39:55;;;;;;;9.45;2.25;;;;;;;;;;5050684;28;20401;-65
2022/05/20 11:42:31;;;;;;;7.88;2.20;;;;;;;;;;5048260;28;20393;-66
2022/05/20 11:45:14;;;;;;;13.13;2.58;;;;;;;;;;5047066;28;20027;-67
2022/05/20 11:48:07;;;;;;;9.45;3.00;;;;;;;;;;5046966;28;20067;-71
2022/05/20 11:50:33;;;;;;;17.13;2.42;;;;;;;;;;5002267;28;20124;-68
2022/05/20 11:53:04;;;;;;;9.27;2.15;;;;;;;;;;5007488;28;20038;-69
2022/05/20 11:55:36;;;;;;;11.05;2.35;;;;;;;;;;5009846;28;20044;-72
2022/05/20 11:58:06;;;;;;;16.30;2.60;;;;;;;;;;5007766;28;20032;-67
2022/05/20 12:00:32;;;;;;;;;;;;;;;;;;5008825;28;20105;-66
2022/05/20 12:03:01;;;;;;;9.77;2.28;;;;;;;;;;5006628;28;19909;-66
2022/05/20 12:05:30;;;;;;;10.68;2.65;;;;;;;;;;5006448;28;20045;-67
2022/05/20 12:07:56;;;;;;;8.52;2.40;;;;;;;;;;5009696;28;20029;-67
2022/05/20 12:10:32;;;;;;;8.63;2.50;;;;;;;;;;5008493;28;20042;-69
2022/05/20 12:13:17;;;;;;;13.77;3.00;;;;;;;;;;5007587;28;20033;-68
2022/05/20 12:15:45;;;;;;;7.25;2.63;;;;;;;;;;5009593;28;20040;-67
2022/05/20 12:24:15;;;;;;;12.93;2.53;;;;;;;;;;5008150;28;20030;-75
2022/05/20 12:26:46;;;;;;;10.00;2.72;;;;;;;;;;5000785;28;20116;-72
2022/05/20 12:29:31;;;;;;;6.43;2.67;;;;;;;;;;5049526;28;20051;-72
2022/05/20 12:31:57;;;;;;;9.57;2.50;;;;;;;;;;5045289;28;20028;-67
2022/05/20 12:34:42;;;;;;;9.82;2.40;;;;;;;;;;5045721;28;20051;-69
2022/05/20 12:37:09;;;;;;;6.65;2.55;;;;;;;;;;5048093;28;20493;-71
2022/05/20 12:39:47;;;;;;;7.13;2.20;;;;;;;;;;5049091;28;20017;-70
2022/05/20 12:42:21;;;;;;;7.43;2.50;;;;;;;;;;5047896;28;20025;-72
2022/05/20 12:44:48;;;;;;;9.93;2.45;;;;;;;;;;5049000;28;20045;-68
2022/05/20 12:47:14;;;;;;;8.38;2.40;;;;;;;;;;5047522;28;20053;-66
2022/05/20 12:49:49;;;;;;;7.18;2.35;;;;;;;;;;5050313;28;20043;-69
2022/05/20 12:52:19;;;;;;;14.20;2.75;;;;;;;;;;5048812;28;20043;-66
2022/05/20 12:54:47;;;;;;;6.50;1.95;;;;;;;;;;5048913;28;20516;-68
2022/05/20 12:57:18;;;;;;;8.35;2.30;;;;;;;;;;5047508;28;20047;-69
2022/05/20 12:59:49;;;;;;;9.32;2.30;;;;;;;;;;5047910;28;20433;-72
2022/05/20 13:02:16;;;;;;;9.85;2.47;;;;;;;;;;5048391;28;20028;-71
2022/05/20 13:04:50;;;;;;;8.18;2.67;;;;;;;;;;5058270;28;20021;-69
2022/05/20 13:07:18;;;;;;;14.48;2.55;;;;;;;;;;5049443;28;20029;-75
2022/05/20 13:09:45;;;;;;;4.80;2.05;;;;;;;;;;5048199;28;20037;-74
2022/05/20 13:12:18;;;;;;;8.15;2.35;;;;;;;;;;5047867;28;20033;-76
2022/05/20 13:14:46;;;;;;;7.70;2.13;;;;;;;;;;5048540;28;20031;-71
2022/05/20 13:17:13;;;;;;;5.38;2.03;;;;;;;;;;5050369;28;20025;-69
2022/05/20 13:19:47;;;;;;;10.55;2.42;;;;;;;;;;5048267;28;20413;-71
2022/05/20 13:22:17;;;;;;;5.95;1.90;;;;;;;;;;5048949;28;20022;-74
2022/05/20 13:24:44;;;;;;;7.03;2.45;;;;;;;;;;5048065;28;20037;-79
2022/05/20 13:27:12;;;;;;;7.22;2.35;;;;;;;;;;5048246;28;20031;-71
2022/05/20 13:29:39;;;;;;;5.65;2.13;;;;;;;;;;5048452;28;20028;-71
2022/05/20 13:32:25;;;;;;;5.13;2.08;;;;;;;;;;5048561;28;20033;-70
2022/05/20 13:34:53;;;;;;;8.65;1.92;;;;;;;;;;5049005;28;20033;-72
2022/05/20 13:37:22;;;;;;;8.48;2.20;;;;;;;;;;5047373;28;20029;-73
2022/05/20 13:39:52;;;;;;;4.40;2.00;;;;;;;;;;5045597;28;20078;-72
2022/05/20 13:42:19;;;;;;;5.65;2.00;;;;;;;;;;5047492;28;20282;-75
2022/05/20 13:44:45;;;;;;;9.32;2.05;;;;;;;;;;5047569;28;20033;-77
2022/05/20 13:50:00;;;;;;;4.05;2.00;;;;;;;;;;5046305;28;20033;-75
2022/05/20 13:52:26;;;;;;;8.80;2.38;;;;;;;;;;5046807;28;20049;-75
2022/05/20 13:55:01;;;;;;;5.25;1.90;;;;;;;;;;5047518;28;20025;-72
2022/05/20 13:57:39;;;;;;;21.15;2.20;;;;;;;;;;5047615;28;20288;-74
2022/05/20 14:00:17;;;;;;;6.72;2.05;;;;;;;;;;5046231;28;20031;-75
2022/05/20 14:02:49;;;;;;;6.85;2.22;;;;;;;;;;5045645;28;20047;-74
2022/05/20 14:05:22;;;;;;;5.00;1.92;;;;;;;;;;5045294;28;20041;-70
2022/05/20 14:07:53;;;;;;;5.70;2.00;;;;;;;;;;5049784;28;20037;-72
2022/05/20 14:10:28;;;;;;;7.47;2.03;;;;;;;;;;5057946;28;20043;-75
2022/05/20 14:13:00;;;;;;;4.70;2.08;;;;;;;;;;5047744;28;20055;-72
2022/05/20 14:15:27;;;;;;;4.22;1.83;;;;;;;;;;5047850;28;20013;-70
2022/05/20 14:17:59;;;;;;;4.28;1.98;;;;;;;;;;5059605;28;20033;-70
2022/05/20 14:20:27;;;;;;;8.32;2.13;;;;;;;;;;5032736;28;20014;-69
2022/05/20 14:22:54;;;;;;;7.13;2.05;;;;;;;;;;5045861;28;20386;-72
2022/05/20 14:25:25;;;;;;;6.18;2.20;;;;;;;;;;5048273;28;20025;-69
2022/05/20 14:27:52;;;;;;;6.13;2.20;;;;;;;;;;5047807;28;20382;-75
2022/05/20 14:30:34;;;;;;;5.35;1.88;;;;;;;;;;5047909;28;20035;-75
2022/05/20 14:33:06;;;;;;;5.03;1.92;;;;;;;;;;5048285;28;20343;-80
2022/05/20 14:35:40;;;;;;;6.45;2.00;;;;;;;;;;5046641;28;20039;-77
2022/05/20 14:38:08;;;;;;;7.20;2.50;;;;;;;;;;5049649;28;20040;-76
2022/05/20 14:40:40;;;;;;;4.80;1.90;;;;;;;;;;5049814;28;20440;-75
2022/05/20 14:43:07;;;;;;;6.70;1.90;;;;;;;;;;5048047;28;20017;-75
2022/05/20 14:45:34;;;;;;;8.30;1.75;;;;;;;;;;5048649;28;20489;-72
2022/05/20 14:48:11;;;;;;;5.88;1.70;;;;;;;;;;5046337;28;20059;-75
2022/05/20 14:50:43;;;;;;;4.05;1.70;;;;;;;;;;5047893;28;20509;-78
2022/05/20 14:53:22;;;;;;;6.30;2.05;;;;;;;;;;5046928;28;20039;-74
2022/05/20 14:55:53;;;;;;;4.43;1.80;;;;;;;;;;5048316;28;20517;-79
2022/05/20 14:58:22;;;;;;;20.63;14.38;;;;;;;;;;5049366;28;20031;-76
2022/05/20 15:00:55;;;;;;;6.75;2.13;;;;;;;;;;5052693;28;20020;-75
2022/05/20 15:03:22;;;;;;;4.90;1.80;;;;;;;;;;5052237;28;20021;-73
2022/05/20 15:05:52;;;;;;;3.80;2.03;;;;;;;;;;5051759;28;20363;-68
2022/05/20 15:08:20;;;;;;;9.23;2.00;;;;;;;;;;5051783;28;20033;-71
2022/05/20 15:10:57;;;;;;;5.32;1.83;;;;;;;;;;5051598;28;20036;-76
2022/05/20 15:13:23;;;;;;;5.72;1.80;;;;;;;;;;5052154;28;20024;-78
2022/05/20 15:15:50;;;;;;;4.28;1.88;;;;;;;;;;5052505;28;20489;-78
2022/05/20 15:18:17;;;;;;;4.63;1.85;;;;;;;;;;5052342;28;20016;-75
2022/05/20 15:20:54;;;;;;;6.28;2.00;;;;;;;;;;5051872;28;20017;-72
2022/05/20 15:23:38;;;;;;;6.25;1.90;;;;;;;;;;5050024;28;20044;-72
2022/05/20 15:26:07;;;;;;;4.03;1.58;;;;;;;;;;5050728;28;20029;-72
2022/05/20 15:28:48;;;;;;;4.90;1.90;;;;;;;;;;5053692;28;20535;-73
2022/05/20 15:36:48;;;;;;;4.88;1.90;;;;;;;;;;5051350;28;20059;-73
2022/05/20 15:39:20;;;;;;;4.88;1.30;;;;;;;;;;5051926;28;20093;-73
2022/05/20 15:41:46;;;;;;;6.53;1.65;;;;;;;;;;5052116;28;20043;-72
2022/05/20 15:44:13;;;;;;;4.15;1.77;;;;;;;;;;5052079;28;20392;-72
2022/05/20 15:46:39;;;;;;;6.10;1.63;;;;;;;;;;5053777;28;20071;-72